Time;durP1;ratioP1;P1;durP2;ratioP2;P2;SDS_P1;SDS_P2;PMS_P1;PMS_P2;Temp;Humidity;BMP_temperature;BMP_pressure;BME280_temperature;BME280_humidity;BME280_pressure;Samples;Min_cycle;Max_cycle;Signal;HPM_P1;HPM_P2
2023/07/31 00:01:32;;;;;;;;;;;16.60;82.90;;;;;;5114301;28;19907;-45
2023/07/31 00:03:58;;;;;;;;;;;16.50;82.90;;;;;;5114167;28;20370;-45
2023/07/31 00:06:24;;;;;;;;;;;16.60;83.00;;;;;;5114230;28;19908;-45
2023/07/31 00:08:49;;;;;;;;;;;16.60;83.00;;;;;;5114226;28;19908;-42
2023/07/31 00:11:15;;;;;;;;;;;16.60;83.00;;;;;;5114354;28;19923;-47
2023/07/31 00:13:40;;;;;;;;;;;16.60;83.00;;;;;;5114120;28;19907;-42
2023/07/31 00:16:06;;;;;;;;;;;16.60;82.90;;;;;;5114105;28;19908;-47
2023/07/31 00:18:31;;;;;;;;;;;16.70;83.00;;;;;;5113947;28;19908;-45
2023/07/31 00:20:56;;;;;;;;;;;16.70;83.00;;;;;;5114108;28;19908;-45
2023/07/31 00:23:22;;;;;;;;;;;16.70;82.90;;;;;;5114241;28;19951;-45
2023/07/31 00:25:47;;;;;;;;;;;16.70;82.90;;;;;;5114033;28;19915;-45
2023/07/31 00:28:13;;;;;;;;;;;16.80;83.10;;;;;;5113814;28;20416;-45
2023/07/31 00:30:39;;;;;;;;;;;16.70;83.00;;;;;;5113959;28;20335;-39
2023/07/31 00:33:04;;;;;;;;;;;16.70;83.00;;;;;;5113755;28;19993;-39
2023/07/31 00:35:30;;;;;;;;;;;16.70;83.10;;;;;;5113579;28;19908;-40
2023/07/31 00:37:56;;;;;;;;;;;16.70;83.10;;;;;;5113673;28;19931;-42
2023/07/31 00:40:21;;;;;;;;;;;16.70;83.10;;;;;;5113540;28;19943;-42
2023/07/31 00:42:47;;;;;;;;;;;16.80;83.10;;;;;;5113504;28;19908;-41
2023/07/31 00:45:12;;;;;;;;;;;16.80;83.10;;;;;;5113380;28;19907;-38
2023/07/31 00:47:38;;;;;;;;;;;16.80;83.20;;;;;;5113370;28;20352;-40
2023/07/31 00:50:03;;;;;;;;;;;16.80;83.10;;;;;;5113630;28;19915;-42
2023/07/31 00:52:29;;;;;;;;;;;16.80;83.10;;;;;;5113221;28;19907;-43
2023/07/31 00:54:54;;;;;;;;;;;16.80;83.10;;;;;;5113190;28;20363;-44
2023/07/31 00:57:20;;;;;;;;;;;16.80;83.30;;;;;;5113324;28;20283;-44
2023/07/31 00:59:46;;;;;;;;;;;16.90;83.30;;;;;;5113152;28;20457;-45
2023/07/31 01:02:12;;;;;;;;;;;16.90;83.40;;;;;;5113155;28;19915;-42
2023/07/31 01:04:37;;;;;;;;;;;16.90;83.30;;;;;;5113244;28;20375;-44
2023/07/31 01:07:06;;;;;;;;;;;16.90;83.30;;;;;;5094719;28;20386;-45
2023/07/31 01:09:40;;;;;;;;;;;16.90;83.40;;;;;;5112967;28;20057;-38
2023/07/31 01:12:06;;;;;;;;;;;17.00;83.60;;;;;;5112890;28;19920;-39
2023/07/31 01:14:32;;;;;;;;;;;17.00;83.80;;;;;;5094713;28;19915;-38
2023/07/31 01:16:57;;;;;;;;;;;17.00;84.20;;;;;;5113005;28;20251;-39
2023/07/31 01:19:25;;;;;;;;;;;17.10;84.00;;;;;;5112976;28;19953;-39
2023/07/31 01:22:15;;;;;;;;;;;17.10;83.90;;;;;;5112807;28;19908;-38
2023/07/31 01:25:00;;;;;;;;;;;17.10;83.90;;;;;;5113005;28;19954;-39
2023/07/31 01:27:29;;;;;;;;;;;17.20;83.90;;;;;;5112330;28;19912;-40
2023/07/31 01:30:14;;;;;;;;;;;17.20;83.90;;;;;;5112716;28;19919;-37
2023/07/31 01:32:40;;;;;;;;;;;17.20;84.00;;;;;;5112640;28;19918;-38
2023/07/31 01:35:06;;;;;;;;;;;17.20;84.40;;;;;;5112833;28;19910;-40
2023/07/31 01:37:32;;;;;;;;;;;17.20;84.30;;;;;;5112724;28;19942;-39
2023/07/31 01:39:57;;;;;;;;;;;17.20;84.40;;;;;;5112609;28;19922;-35
2023/07/31 01:42:22;;;;;;;;;;;17.20;84.80;;;;;;5112494;28;20268;-37
2023/07/31 01:44:48;;;;;;;;;;;17.20;84.80;;;;;;5111620;28;19907;-39
2023/07/31 01:47:13;;;;;;;;;;;17.30;85.70;;;;;;5112475;28;20362;-39
2023/07/31 01:49:39;;;;;;;;;;;17.20;85.00;;;;;;5094253;28;20274;-37
2023/07/31 01:52:05;;;;;;;;;;;17.30;85.20;;;;;;5111898;28;19941;-39
2023/07/31 01:54:30;;;;;;;;;;;17.30;85.40;;;;;;5112320;28;19908;-37
2023/07/31 01:56:56;;;;;;;;;;;17.30;85.20;;;;;;5112434;28;19951;-40
2023/07/31 01:59:21;;;;;;;;;;;17.20;85.20;;;;;;5112342;28;20281;-39
2023/07/31 02:01:47;;;;;;;;;;;17.20;85.40;;;;;;5112663;28;19908;-39
2023/07/31 02:04:12;;;;;;;;;;;17.30;85.30;;;;;;5112176;28;19911;-38
2023/07/31 02:06:38;;;;;;;;;;;17.30;85.30;;;;;;5112254;28;20359;-39
2023/07/31 02:09:06;;;;;;;;;;;17.20;85.40;;;;;;5112044;28;20416;-39
2023/07/31 02:11:31;;;;;;;;;;;17.30;85.30;;;;;;5112259;28;19943;-34
2023/07/31 02:13:57;;;;;;;;;;;17.30;85.50;;;;;;5112356;28;19950;-34
2023/07/31 02:16:22;;;;;;;;;;;17.20;85.50;;;;;;5112341;28;20355;-34
2023/07/31 02:18:48;;;;;;;;;;;17.30;85.60;;;;;;5112260;28;20343;-34
2023/07/31 02:21:13;;;;;;;;;;;17.20;85.70;;;;;;5112251;28;19912;-34
2023/07/31 02:23:39;;;;;;;;;;;17.20;85.60;;;;;;5112339;28;20416;-34
2023/07/31 02:26:04;;;;;;;;;;;17.20;85.70;;;;;;5112150;28;20297;-34
2023/07/31 02:28:30;;;;;;;;;;;17.10;85.70;;;;;;5112236;28;19946;-34
2023/07/31 02:30:55;;;;;;;;;;;17.20;85.80;;;;;;5112172;28;19942;-34
2023/07/31 02:33:20;;;;;;;;;;;17.10;86.00;;;;;;5093808;28;19983;-33
2023/07/31 02:35:46;;;;;;;;;;;17.10;86.00;;;;;;5112503;28;19908;-34
2023/07/31 02:38:12;;;;;;;;;;;17.10;86.40;;;;;;5112120;28;19908;-33
2023/07/31 02:40:38;;;;;;;;;;;17.00;86.60;;;;;;5115843;28;19914;-34
2023/07/31 02:43:04;;;;;;;;;;;17.00;86.70;;;;;;5116262;28;20268;-34
2023/07/31 02:45:29;;;;;;;;;;;16.90;86.50;;;;;;5115914;28;19908;-32
2023/07/31 02:47:55;;;;;;;;;;;16.90;86.60;;;;;;5115764;28;19935;-33
2023/07/31 02:50:20;;;;;;;;;;;16.90;86.80;;;;;;5115762;28;19908;-33
2023/07/31 02:52:46;;;;;;;;;;;16.90;86.80;;;;;;5115867;28;19914;-35
2023/07/31 02:55:11;;;;;;;;;;;16.80;86.70;;;;;;5115579;28;20279;-33
2023/07/31 02:57:36;;;;;;;;;;;16.90;87.40;;;;;;5115544;28;19998;-34
2023/07/31 03:00:05;;;;;;;;;;;16.80;87.00;;;;;;5115621;28;19908;-33
2023/07/31 03:02:31;;;;;;;;;;;16.80;87.10;;;;;;5115467;28;20399;-33
2023/07/31 03:04:56;;;;;;;;;;;16.80;87.20;;;;;;5115299;28;19924;-34
2023/07/31 03:07:22;;;;;;;;;;;16.80;87.10;;;;;;5114813;28;19918;-33
2023/07/31 03:09:47;;;;;;;;;;;16.80;87.10;;;;;;5114365;28;19919;-34
2023/07/31 03:12:13;;;;;;;;;;;16.90;87.10;;;;;;5115073;28;20076;-33
2023/07/31 03:14:38;;;;;;;;;;;16.90;87.10;;;;;;5115215;28;19911;-33
2023/07/31 03:17:04;;;;;;;;;;;16.90;86.90;;;;;;5115126;28;19912;-34
2023/07/31 03:19:32;;;;;;;;;;;16.90;87.00;;;;;;5115245;28;20291;-34
2023/07/31 03:21:58;;;;;;;;;;;16.90;87.20;;;;;;5096806;28;19934;-33
2023/07/31 03:24:24;;;;;;;;;;;16.90;87.20;;;;;;5115100;28;20020;-33
2023/07/31 03:26:49;;;;;;;;;;;16.90;87.10;;;;;;5115123;28;19911;-33
2023/07/31 03:29:15;;;;;;;;;;;16.90;87.00;;;;;;5114968;28;20014;-33
2023/07/31 03:31:40;;;;;;;;;;;16.80;87.10;;;;;;5114905;28;20287;-32
2023/07/31 03:34:06;;;;;;;;;;;16.90;87.10;;;;;;5114865;28;19957;-32
2023/07/31 03:36:31;;;;;;;;;;;16.80;87.00;;;;;;5114292;28;19914;-32
2023/07/31 03:38:57;;;;;;;;;;;16.90;87.10;;;;;;5114897;28;19912;-33
2023/07/31 03:41:22;;;;;;;;;;;16.90;87.10;;;;;;5114772;28;19912;-33
2023/07/31 03:43:49;;;;;;;;;;;16.90;87.20;;;;;;5114838;28;19919;-34
2023/07/31 03:46:14;;;;;;;;;;;16.90;87.10;;;;;;5096416;28;20294;-33
2023/07/31 03:48:40;;;;;;;;;;;16.90;87.00;;;;;;5114779;28;19912;-33
2023/07/31 03:51:05;;;;;;;;;;;16.90;87.20;;;;;;5114254;28;19980;-33
2023/07/31 03:53:30;;;;;;;;;;;16.90;87.00;;;;;;5114873;28;19912;-33
2023/07/31 03:55:56;;;;;;;;;;;16.90;87.00;;;;;;5114487;28;20054;-33
2023/07/31 03:58:21;;;;;;;;;;;16.90;86.90;;;;;;5114415;28;19911;-33
2023/07/31 04:00:47;;;;;;;;;;;16.90;86.90;;;;;;5114438;28;19915;-34
2023/07/31 04:03:12;;;;;;;;;;;16.90;86.90;;;;;;5114264;28;19919;-31
2023/07/31 04:05:38;;;;;;;;;;;16.90;86.80;;;;;;5114115;28;20362;-33
2023/07/31 04:08:03;;;;;;;;;;;16.80;86.70;;;;;;5114295;28;20015;-32
2023/07/31 04:10:31;;;;;;;;;;;16.90;86.70;;;;;;5114146;28;20094;-32
2023/07/31 04:12:56;;;;;;;;;;;16.90;86.70;;;;;;5114063;28;19963;-34
2023/07/31 04:15:21;;;;;;;;;;;16.90;86.70;;;;;;5113904;28;19915;-31
2023/07/31 04:17:47;;;;;;;;;;;16.90;86.60;;;;;;5113707;28;20010;-33
2023/07/31 04:20:12;;;;;;;;;;;16.90;86.60;;;;;;5113326;28;19912;-32
2023/07/31 04:22:38;;;;;;;;;;;16.90;86.60;;;;;;5113479;28;20260;-33
2023/07/31 04:25:03;;;;;;;;;;;16.90;86.60;;;;;;5113770;28;19912;-33
2023/07/31 04:27:29;;;;;;;;;;;16.90;86.60;;;;;;5113682;28;19916;-33
2023/07/31 04:29:54;;;;;;;;;;;16.90;86.50;;;;;;5113803;28;19916;-34
2023/07/31 04:32:20;;;;;;;;;;;16.90;86.50;;;;;;5113798;28;19915;-33
2023/07/31 04:34:46;;;;;;;;;;;16.90;86.50;;;;;;5113729;28;19912;-34
2023/07/31 04:37:11;;;;;;;;;;;16.90;86.50;;;;;;5113732;28;19919;-33
2023/07/31 04:39:37;;;;;;;;;;;16.90;86.50;;;;;;5113640;28;19911;-34
2023/07/31 04:42:02;;;;;;;;;;;16.90;86.40;;;;;;5113592;28;20367;-33
2023/07/31 04:44:28;;;;;;;;;;;16.90;86.40;;;;;;5113042;28;19919;-33
2023/07/31 04:46:53;;;;;;;;;;;16.90;86.40;;;;;;5112757;28;19957;-32
2023/07/31 04:49:19;;;;;;;;;;;16.90;86.30;;;;;;5094954;28;19911;-33
2023/07/31 04:51:44;;;;;;;;;;;16.90;86.30;;;;;;5113063;28;19927;-34
2023/07/31 04:54:12;;;;;;;;;;;17.00;86.30;;;;;;5113397;28;19934;-33
2023/07/31 04:56:38;;;;;;;;;;;17.00;86.30;;;;;;5113368;28;19912;-39
2023/07/31 04:59:03;;;;;;;;;;;17.00;86.20;;;;;;5113039;28;20010;-37
2023/07/31 05:01:29;;;;;;;;;;;17.00;86.20;;;;;;5112538;28;19911;-45
2023/07/31 05:03:54;;;;;;;;;;;17.00;86.20;;;;;;5112890;28;20330;-44
2023/07/31 05:06:20;;;;;;;;;;;17.00;86.20;;;;;;5113068;28;20379;-46
2023/07/31 05:08:45;;;;;;;;;;;17.00;86.20;;;;;;5112728;28;19916;-45
2023/07/31 05:11:11;;;;;;;;;;;16.90;86.10;;;;;;5112531;28;19924;-51
2023/07/31 05:13:37;;;;;;;;;;;17.00;86.30;;;;;;5094182;28;20371;-51
2023/07/31 05:16:02;;;;;;;;;;;17.00;86.20;;;;;;5112918;28;19957;-44
2023/07/31 05:18:28;;;;;;;;;;;17.00;86.10;;;;;;5112743;28;19912;-45
2023/07/31 05:20:53;;;;;;;;;;;17.00;86.10;;;;;;5112881;28;20002;-44
2023/07/31 05:23:19;;;;;;;;;;;17.00;86.10;;;;;;5112715;28;19919;-46
2023/07/31 05:25:44;;;;;;;;;;;17.00;86.00;;;;;;5112711;28;19955;-44
2023/07/31 05:28:10;;;;;;;;;;;17.00;86.00;;;;;;5112818;28;19912;-44
2023/07/31 05:30:35;;;;;;;;;;;17.00;86.00;;;;;;5112556;28;19983;-44
2023/07/31 05:33:01;;;;;;;;;;;17.00;86.00;;;;;;5113028;28;19965;-45
2023/07/31 05:35:26;;;;;;;;;;;17.00;86.00;;;;;;5112933;28;19912;-31
2023/07/31 05:37:51;;;;;;;;;;;17.00;86.10;;;;;;5112620;28;19912;-31
2023/07/31 05:40:17;;;;;;;;;;;17.00;86.20;;;;;;5112590;28;19918;-31
2023/07/31 05:42:43;;;;;;;;;;;17.00;86.10;;;;;;5112553;28;19937;-31
2023/07/31 05:45:08;;;;;;;;;;;17.00;86.10;;;;;;5112707;28;19912;-30
2023/07/31 05:47:34;;;;;;;;;;;17.00;86.20;;;;;;5112543;28;19918;-30
2023/07/31 05:49:59;;;;;;;;;;;16.90;86.20;;;;;;5112648;28;19912;-33
2023/07/31 05:52:25;;;;;;;;;;;16.90;86.20;;;;;;5112508;28;19919;-32
2023/07/31 05:54:51;;;;;;;;;;;16.90;86.30;;;;;;5112623;28;19912;-32
2023/07/31 05:57:16;;;;;;;;;;;16.90;86.30;;;;;;5112580;28;19919;-29
2023/07/31 05:59:42;;;;;;;;;;;16.90;86.40;;;;;;5112597;28;19912;-31
2023/07/31 06:02:07;;;;;;;;;;;16.90;86.40;;;;;;5094205;28;19911;-31
2023/07/31 06:04:33;;;;;;;;;;;16.90;86.50;;;;;;5112281;28;19920;-30
2023/07/31 06:06:58;;;;;;;;;;;16.80;86.50;;;;;;5112736;28;19937;-29
2023/07/31 06:09:25;;;;;;;;;;;16.90;86.50;;;;;;5112365;28;20128;-29
2023/07/31 06:11:51;;;;;;;;;;;16.90;86.60;;;;;;5112740;28;19915;-29
2023/07/31 06:14:16;;;;;;;;;;;16.90;86.60;;;;;;5115656;28;19920;-29
2023/07/31 06:16:43;;;;;;;;;;;16.90;86.60;;;;;;5116441;28;19919;-31
2023/07/31 06:19:09;;;;;;;;;;;16.80;86.60;;;;;;5116515;28;19918;-28
2023/07/31 06:21:37;;;;;;;;;;;16.90;86.70;;;;;;5116285;28;20290;-29
2023/07/31 06:24:03;;;;;;;;;;;16.90;86.70;;;;;;5116215;28;20369;-30
2023/07/31 06:26:28;;;;;;;;;;;16.90;86.70;;;;;;5116488;28;19916;-28
2023/07/31 06:28:54;;;;;;;;;;;16.90;86.60;;;;;;5116194;28;19912;-36
2023/07/31 06:31:22;;;;;;;;;;;16.90;86.70;;;;;;5115983;28;20425;-30
2023/07/31 06:33:51;;;;;;;;;;;16.90;86.60;;;;;;5116104;28;19921;-33
2023/07/31 06:36:17;;;;;;;;;;;17.00;86.70;;;;;;5115985;28;19919;-31
2023/07/31 06:38:42;;;;;;;;;;;17.00;86.80;;;;;;5115971;28;20288;-31
2023/07/31 06:41:08;;;;;;;;;;;17.00;86.90;;;;;;5115915;28;19908;-40
2023/07/31 06:43:33;;;;;;;;;;;17.00;86.90;;;;;;5115890;28;19907;-44
2023/07/31 06:46:04;;;;;;;;;;;17.00;87.10;;;;;;5115812;28;19908;-45
2023/07/31 06:48:29;;;;;;;;;;;17.00;86.80;;;;;;5115680;28;20378;-44
2023/07/31 06:50:54;;;;;;;;;;;17.10;87.00;;;;;;5115750;28;19916;-43
2023/07/31 06:53:20;;;;;;;;;;;17.10;87.00;;;;;;5115565;28;19908;-43
2023/07/31 06:55:46;;;;;;;;;;;17.10;87.00;;;;;;5097267;28;19908;-43
2023/07/31 06:58:11;;;;;;;;;;;17.10;87.10;;;;;;5115650;28;19998;-36
2023/07/31 07:00:37;;;;;;;;;;;17.10;87.10;;;;;;5115507;28;19908;-38
2023/07/31 07:03:02;;;;;;;;;;;17.10;87.40;;;;;;5115648;28;19908;-34
2023/07/31 07:05:28;;;;;;;;;;;17.10;87.40;;;;;;5115371;28;19963;-32
2023/07/31 07:07:53;;;;;;;;;;;17.10;87.50;;;;;;5115406;28;20367;-34
2023/07/31 07:10:19;;;;;;;;;;;17.10;87.50;;;;;;5115244;28;19907;-36
2023/07/31 07:12:44;;;;;;;;;;;17.20;87.50;;;;;;5115355;28;19955;-33
2023/07/31 07:15:10;;;;;;;;;;;17.10;87.40;;;;;;5115443;28;19946;-39
2023/07/31 07:17:35;;;;;;;;;;;17.20;87.50;;;;;;5115387;28;19912;-38
2023/07/31 07:20:01;;;;;;;;;;;17.30;87.60;;;;;;5115198;28;20369;-34
2023/07/31 07:22:27;;;;;;;;;;;17.30;87.50;;;;;;5096956;28;19915;-34
2023/07/31 07:24:53;;;;;;;;;;;17.30;87.50;;;;;;5114508;28;20371;-35
2023/07/31 07:27:18;;;;;;;;;;;17.40;87.50;;;;;;5114910;28;19908;-34
2023/07/31 07:29:44;;;;;;;;;;;17.40;87.50;;;;;;5115061;28;19999;-33
2023/07/31 07:32:09;;;;;;;;;;;17.50;88.10;;;;;;5114958;28;20033;-37
2023/07/31 07:34:34;;;;;;;;;;;17.50;87.50;;;;;;5114877;28;20367;-33
2023/07/31 07:37:00;;;;;;;;;;;17.50;87.50;;;;;;5114858;28;19990;-33
2023/07/31 07:39:26;;;;;;;;;;;17.50;87.50;;;;;;5114810;28;19908;-36
2023/07/31 07:41:53;;;;;;;;;;;17.50;87.70;;;;;;5114788;28;19954;-34
2023/07/31 07:44:18;;;;;;;;;;;17.50;87.80;;;;;;5114742;28;20319;-33
2023/07/31 07:46:44;;;;;;;;;;;17.50;87.90;;;;;;5114535;28;19962;-33
2023/07/31 07:49:09;;;;;;;;;;;17.40;87.80;;;;;;5114507;28;20396;-33
2023/07/31 07:51:35;;;;;;;;;;;17.50;87.90;;;;;;5114317;28;20018;-33
2023/07/31 07:54:00;;;;;;;;;;;17.50;87.90;;;;;;5114435;28;19914;-33
2023/07/31 07:56:26;;;;;;;;;;;17.50;88.00;;;;;;5114374;28;19998;-32
2023/07/31 07:58:52;;;;;;;;;;;17.40;87.90;;;;;;5114379;28;19915;-34
2023/07/31 08:01:18;;;;;;;;;;;17.50;88.00;;;;;;5114211;28;19908;-34
2023/07/31 08:03:43;;;;;;;;;;;17.50;88.20;;;;;;5114068;28;19994;-34
2023/07/31 08:06:09;;;;;;;;;;;17.50;88.30;;;;;;5095977;28;19919;-33
2023/07/31 08:08:35;;;;;;;;;;;17.50;88.50;;;;;;5114260;28;19923;-33
2023/07/31 08:11:00;;;;;;;;;;;17.50;88.50;;;;;;5114131;28;20002;-34
2023/07/31 08:13:26;;;;;;;;;;;17.50;88.40;;;;;;5113998;28;19934;-34
2023/07/31 08:15:51;;;;;;;;;;;17.50;88.60;;;;;;5114100;28;19908;-34
2023/07/31 08:18:17;;;;;;;;;;;17.60;88.70;;;;;;5114016;28;19912;-33
2023/07/31 08:20:43;;;;;;;;;;;17.60;88.70;;;;;;5114085;28;20278;-34
2023/07/31 08:23:09;;;;;;;;;;;17.60;88.70;;;;;;5114012;28;19939;-33
2023/07/31 08:25:35;;;;;;;;;;;17.60;88.60;;;;;;5114068;28;20334;-34
2023/07/31 08:28:01;;;;;;;;;;;17.60;88.60;;;;;;5113825;28;19995;-34
2023/07/31 08:30:26;;;;;;;;;;;17.60;89.00;;;;;;5113683;28;19951;-34
2023/07/31 08:32:52;;;;;;;;;;;17.70;89.00;;;;;;5113936;28;20342;-33
2023/07/31 08:35:17;;;;;;;;;;;17.70;88.80;;;;;;5113580;28;19912;-33
2023/07/31 08:37:43;;;;;;;;;;;17.70;88.70;;;;;;5112611;28;19908;-33
2023/07/31 08:40:09;;;;;;;;;;;17.70;88.80;;;;;;5113547;28;19918;-33
2023/07/31 08:42:42;;;;;;;;;;;17.80;88.90;;;;;;5113524;28;20415;-33
2023/07/31 08:45:08;;;;;;;;;;;17.80;89.00;;;;;;5095229;28;19908;-34
2023/07/31 08:47:33;;;;;;;;;;;17.80;89.00;;;;;;5113429;28;19908;-34
2023/07/31 08:49:59;;;;;;;;;;;17.80;89.10;;;;;;5113408;28;20359;-35
2023/07/31 08:52:25;;;;;;;;;;;17.80;89.00;;;;;;5113491;28;19998;-35
2023/07/31 08:54:50;;;;;;;;;;;18.00;89.00;;;;;;5113307;28;19908;-35
2023/07/31 08:57:16;;;;;;;;;;;18.00;89.20;;;;;;5113281;28;19945;-34
2023/07/31 08:59:42;;;;;;;;;;;18.00;89.20;;;;;;5113332;28;19911;-34
2023/07/31 09:02:08;;;;;;;;;;;18.00;89.20;;;;;;5113169;28;19908;-34
2023/07/31 09:04:34;;;;;;;;;;;18.00;89.60;;;;;;5112877;28;19919;-34
2023/07/31 09:07:00;;;;;;;;;;;18.00;89.60;;;;;;5113165;28;19907;-32
2023/07/31 09:09:26;;;;;;;;;;;18.00;89.60;;;;;;5094821;28;20382;-34
2023/07/31 09:11:52;;;;;;;;;;;18.00;89.70;;;;;;5113009;28;19950;-33
2023/07/31 09:14:18;;;;;;;;;;;18.00;89.50;;;;;;5113003;28;20020;-33
2023/07/31 09:16:54;;;;;;;;;;;18.00;89.50;;;;;;5112996;28;20374;-33
2023/07/31 09:19:25;;;;;;;;;;;18.00;89.40;;;;;;5112872;28;19994;-34
2023/07/31 09:21:50;;;;;;;;;;;18.00;89.50;;;;;;5113013;28;20252;-34
2023/07/31 09:24:29;;;;;;;;;;;18.00;89.60;;;;;;5112985;28;20010;-34
2023/07/31 09:26:56;;;;;;;;;;;18.00;90.10;;;;;;5112899;28;19920;-34
2023/07/31 09:29:22;;;;;;;;;;;18.00;89.70;;;;;;5112870;28;19990;-35
2023/07/31 09:31:47;;;;;;;;;;;18.00;89.70;;;;;;5112726;28;20002;-35
2023/07/31 09:34:13;;;;;;;;;;;18.00;89.60;;;;;;5112802;28;19907;-34
2023/07/31 09:36:43;;;;;;;;;;;18.00;89.60;;;;;;5112751;28;19908;-33
2023/07/31 09:39:10;;;;;;;;;;;18.00;89.70;;;;;;5112638;28;19915;-33
2023/07/31 09:41:38;;;;;;;;;;;18.00;89.70;;;;;;5112643;28;20321;-33
2023/07/31 09:44:03;;;;;;;;;;;18.10;89.90;;;;;;5112790;28;19956;-34
2023/07/31 09:46:29;;;;;;;;;;;18.00;89.90;;;;;;5112884;28;19907;-34
2023/07/31 09:49:04;;;;;;;;;;;18.00;90.00;;;;;;5115610;28;19919;-33
2023/07/31 09:51:31;;;;;;;;;;;18.00;90.10;;;;;;5116758;28;19912;-33
2023/07/31 09:53:56;;;;;;;;;;;18.00;90.10;;;;;;5116655;28;20279;-33
2023/07/31 09:56:23;;;;;;;;;;;18.00;90.00;;;;;;5116827;28;19908;-34
2023/07/31 09:58:49;;;;;;;;;;;18.00;90.00;;;;;;5116717;28;19908;-34
2023/07/31 10:01:14;;;;;;;;;;;18.10;90.00;;;;;;5116700;28;19957;-34
2023/07/31 10:03:40;;;;;;;;;;;18.10;90.00;;;;;;5116387;28;20271;-33
2023/07/31 10:06:08;;;;;;;;;;;18.10;90.00;;;;;;5116645;28;20007;-32
2023/07/31 10:08:36;;;;;;;;;;;18.10;89.90;;;;;;5116542;28;19934;-34
2023/07/31 10:11:02;;;;;;;;;;;18.10;90.00;;;;;;5116450;28;19958;-33
2023/07/31 10:13:29;;;;;;;;;;;18.20;90.00;;;;;;5116476;28;19928;-34
2023/07/31 10:15:57;;;;;;;;;;;18.20;90.00;;;;;;5116597;28;19943;-33
2023/07/31 10:18:23;;;;;;;;;;;18.10;89.90;;;;;;5116317;28;19984;-33
2023/07/31 10:20:49;;;;;;;;;;;18.20;90.00;;;;;;5116354;28;19914;-34
2023/07/31 10:23:15;;;;;;;;;;;18.20;90.00;;;;;;5116310;28;20283;-33
2023/07/31 10:25:42;;;;;;;;;;;18.20;90.00;;;;;;5116238;28;19942;-35
2023/07/31 10:28:08;;;;;;;;;;;18.20;90.00;;;;;;5116090;28;19908;-33
2023/07/31 10:30:34;;;;;;;;;;;18.30;90.00;;;;;;5115879;28;20382;-33
2023/07/31 10:33:00;;;;;;;;;;;18.30;90.10;;;;;;5115994;28;19953;-32
2023/07/31 10:35:27;;;;;;;;;;;18.40;90.00;;;;;;5116014;28;19907;-35
2023/07/31 10:37:52;;;;;;;;;;;18.40;90.00;;;;;;5115985;28;19907;-33
2023/07/31 10:40:25;;;;;;;;;;;18.40;89.90;;;;;;5115958;28;20312;-34
2023/07/31 10:42:54;;;;;;;;;;;18.40;89.90;;;;;;5116319;28;19908;-32
2023/07/31 10:45:39;;;;;;;;;;;18.40;89.80;;;;;;5115817;28;19914;-33
2023/07/31 10:48:12;;;;;;;;;;;18.50;89.90;;;;;;5115825;28;19907;-33
2023/07/31 10:50:38;;;;;;;;;;;18.50;89.80;;;;;;5115596;28;19915;-33
2023/07/31 10:53:04;;;;;;;;;;;18.50;89.80;;;;;;5115684;28;19932;-33
2023/07/31 10:55:30;;;;;;;;;;;18.50;89.70;;;;;;5115685;28;19908;-33
2023/07/31 10:57:57;;;;;;;;;;;18.50;89.70;;;;;;5115573;28;19953;-32
2023/07/31 11:00:25;;;;;;;;;;;18.60;89.70;;;;;;5114476;28;20359;-32
2023/07/31 11:03:00;;;;;;;;;;;18.70;89.70;;;;;;5115448;28;19908;-32
2023/07/31 11:05:40;;;;;;;;;;;18.70;89.50;;;;;;5115484;28;19923;-33
2023/07/31 11:08:20;;;;;;;;;;;18.80;89.50;;;;;;5115454;28;20434;-36
2023/07/31 11:10:46;;;;;;;;;;;18.70;90.00;;;;;;5115351;28;19922;-34
2023/07/31 11:13:12;;;;;;;;;;;18.70;89.40;;;;;;5096942;28;19911;-34
2023/07/31 11:15:38;;;;;;;;;;;18.70;89.50;;;;;;5115322;28;19914;-34
2023/07/31 11:18:05;;;;;;;;;;;18.70;89.60;;;;;;5115326;28;19957;-34
2023/07/31 11:20:31;;;;;;;;;;;18.70;89.50;;;;;;5115132;28;19908;-33
2023/07/31 11:22:58;;;;;;;;;;;18.80;89.60;;;;;;5115139;28;19957;-33
2023/07/31 11:25:23;;;;;;;;;;;18.80;89.80;;;;;;5115126;28;19953;-34
2023/07/31 11:27:53;;;;;;;;;;;18.80;89.70;;;;;;5115228;28;19987;-34
2023/07/31 11:30:19;;;;;;;;;;;18.80;89.50;;;;;;5115089;28;19915;-34
2023/07/31 11:32:45;;;;;;;;;;;18.80;90.00;;;;;;5114835;28;19923;-34
2023/07/31 11:35:13;;;;;;;;;;;18.70;89.60;;;;;;5115094;28;19907;-33
2023/07/31 11:37:42;;;;;;;;;;;18.70;89.60;;;;;;5114878;28;19908;-33
2023/07/31 11:40:08;;;;;;;;;;;18.70;89.80;;;;;;5114946;28;19908;-33
2023/07/31 11:42:36;;;;;;;;;;;18.70;89.90;;;;;;5114837;28;20394;-34
2023/07/31 11:45:03;;;;;;;;;;;18.70;89.80;;;;;;5114680;28;19908;-33
2023/07/31 11:47:30;;;;;;;;;;;18.70;89.70;;;;;;5114628;28;19907;-33
2023/07/31 11:49:56;;;;;;;;;;;18.80;89.90;;;;;;5114539;28;20002;-35
2023/07/31 11:52:23;;;;;;;;;;;18.80;89.90;;;;;;5114424;28;19994;-34
2023/07/31 11:54:48;;;;;;;;;;;18.80;89.80;;;;;;5114860;28;19908;-35
2023/07/31 11:57:14;;;;;;;;;;;18.90;89.80;;;;;;5114363;28;19908;-34
2023/07/31 11:59:40;;;;;;;;;;;18.90;89.90;;;;;;5114346;28;19908;-31
2023/07/31 12:02:05;;;;;;;;;;;18.90;89.80;;;;;;5114590;28;19925;-34
2023/07/31 12:04:31;;;;;;;;;;;18.90;89.70;;;;;;5114019;28;19919;-32
2023/07/31 12:06:56;;;;;;;;;;;18.90;89.70;;;;;;5114477;28;19965;-34
2023/07/31 12:09:23;;;;;;;;;;;18.90;89.60;;;;;;5114175;28;19908;-33
2023/07/31 12:11:49;;;;;;;;;;;19.00;89.80;;;;;;5114312;28;19927;-34
2023/07/31 12:14:24;;;;;;;;;;;19.00;89.60;;;;;;5114414;28;20402;-33
2023/07/31 12:16:56;;;;;;;;;;;19.00;89.70;;;;;;5095857;28;19930;-33
2023/07/31 12:19:22;;;;;;;;;;;19.00;89.70;;;;;;5114075;28;20426;-32
2023/07/31 12:21:48;;;;;;;;;;;19.00;89.70;;;;;;5113941;28;19943;-32
2023/07/31 12:24:13;;;;;;;;;;;19.00;89.60;;;;;;5113880;28;19908;-34
2023/07/31 12:26:39;;;;;;;;;;;19.00;89.50;;;;;;5113793;28;19994;-34
2023/07/31 12:29:06;;;;;;;;;;;19.00;89.50;;;;;;5113902;28;19911;-34
2023/07/31 12:31:33;;;;;;;;;;;19.00;89.40;;;;;;5114225;28;19912;-34
2023/07/31 12:33:59;;;;;;;;;;;19.10;89.40;;;;;;5113523;28;19914;-32
2023/07/31 12:36:25;;;;;;;;;;;19.00;89.30;;;;;;5113708;28;19912;-36
2023/07/31 12:38:51;;;;;;;;;;;19.10;89.40;;;;;;5113715;28;20007;-33
2023/07/31 12:41:16;;;;;;;;;;;19.00;89.50;;;;;;5113682;28;20363;-33
2023/07/31 12:43:43;;;;;;;;;;;19.00;89.50;;;;;;5113394;28;19907;-32
2023/07/31 12:46:09;;;;;;;;;;;19.00;89.60;;;;;;5113427;28;19907;-33
2023/07/31 12:48:35;;;;;;;;;;;19.00;89.60;;;;;;5113342;28;19947;-34
2023/07/31 12:51:01;;;;;;;;;;;18.90;89.70;;;;;;5113310;28;19954;-34
2023/07/31 12:53:27;;;;;;;;;;;18.90;89.70;;;;;;5113315;28;19912;-34
2023/07/31 12:55:52;;;;;;;;;;;18.90;89.70;;;;;;5113306;28;19999;-32
2023/07/31 12:58:18;;;;;;;;;;;18.90;89.80;;;;;;5113193;28;19932;-33
2023/07/31 13:00:43;;;;;;;;;;;18.90;89.90;;;;;;5113131;28;19908;-33
2023/07/31 13:03:08;;;;;;;;;;;18.80;89.90;;;;;;5113181;28;19911;-32
2023/07/31 13:05:34;;;;;;;;;;;18.80;90.00;;;;;;5113095;28;19923;-35
2023/07/31 13:08:00;;;;;;;;;;;18.90;90.10;;;;;;5113360;28;19919;-34
2023/07/31 13:10:27;;;;;;;;;;;18.90;90.00;;;;;;5113351;28;19907;-35
2023/07/31 13:12:52;;;;;;;;;;;18.90;90.00;;;;;;5113401;28;19916;-33
2023/07/31 13:15:18;;;;;;;;;;;19.00;90.00;;;;;;5113070;28;19908;-34
2023/07/31 13:17:43;;;;;;;;;;;19.00;89.80;;;;;;5113118;28;19914;-33
2023/07/31 13:20:09;;;;;;;;;;;19.10;89.80;;;;;;5113039;28;19908;-34
2023/07/31 13:22:34;;;;;;;;;;;19.20;89.80;;;;;;5112447;28;19915;-36
2023/07/31 13:25:00;;;;;;;;;;;19.20;89.90;;;;;;5112985;28;20378;-33
2023/07/31 13:27:25;;;;;;;;;;;19.20;89.90;;;;;;5112876;28;19911;-34
2023/07/31 13:29:51;;;;;;;;;;;19.10;89.90;;;;;;5112845;28;19908;-33
2023/07/31 13:32:17;;;;;;;;;;;19.10;90.00;;;;;;5112791;28;19955;-34
2023/07/31 13:34:43;;;;;;;;;;;19.20;90.00;;;;;;5112757;28;19908;-33
2023/07/31 13:37:09;;;;;;;;;;;19.30;89.80;;;;;;5112559;28;19953;-33
2023/07/31 13:39:35;;;;;;;;;;;19.30;89.70;;;;;;5112764;28;19912;-33
2023/07/31 13:42:00;;;;;;;;;;;19.30;89.70;;;;;;5112643;28;19907;-34
2023/07/31 13:44:26;;;;;;;;;;;19.30;89.70;;;;;;5094460;28;19960;-33
2023/07/31 13:46:51;;;;;;;;;;;19.30;89.60;;;;;;5112593;28;20306;-33
2023/07/31 13:49:17;;;;;;;;;;;19.30;89.60;;;;;;5112412;28;19912;-34
2023/07/31 13:51:42;;;;;;;;;;;19.30;89.50;;;;;;5112517;28;19911;-34
2023/07/31 13:54:08;;;;;;;;;;;19.30;89.50;;;;;;5112650;28;19957;-33
2023/07/31 13:56:33;;;;;;;;;;;19.30;89.50;;;;;;5112588;28;19961;-34
2023/07/31 13:59:00;;;;;;;;;;;19.30;89.50;;;;;;5112396;28;20366;-33
2023/07/31 14:01:26;;;;;;;;;;;19.30;89.70;;;;;;5112621;28;19908;-36
2023/07/31 14:03:52;;;;;;;;;;;19.30;89.70;;;;;;5112223;28;19908;-33
2023/07/31 14:06:17;;;;;;;;;;;19.30;89.80;;;;;;5112502;28;20394;-35
2023/07/31 14:08:42;;;;;;;;;;;19.30;89.70;;;;;;5112415;28;19972;-34
2023/07/31 14:11:08;;;;;;;;;;;19.20;89.70;;;;;;5112437;28;19916;-34